sensor_id;sensor_type;location;lat;lon;timestamp;P1;durP1;ratioP1;P2;durP2;ratioP2
27839;SDS011;15207;42.182;24.308;2023-08-17T00:02:12;11.10;;;4.45;;
27839;SDS011;15207;42.182;24.308;2023-08-17T00:04:38;11.30;;;4.30;;
27839;SDS011;15207;42.182;24.308;2023-08-17T00:07:04;9.70;;;4.00;;
27839;SDS011;15207;42.182;24.308;2023-08-17T00:09:30;9.50;;;4.00;;
27839;SDS011;15207;42.182;24.308;2023-08-17T00:14:21;7.70;;;4.20;;
27839;SDS011;15207;42.182;24.308;2023-08-17T00:19:14;9.60;;;4.40;;
27839;SDS011;15207;42.182;24.308;2023-08-17T00:21:39;16.20;;;4.30;;
27839;SDS011;15207;42.182;24.308;2023-08-17T00:24:05;10.10;;;4.30;;
27839;SDS011;15207;42.182;24.308;2023-08-17T00:26:30;6.80;;;3.80;;
27839;SDS011;15207;42.182;24.308;2023-08-17T00:28:56;9.00;;;4.00;;
27839;SDS011;15207;42.182;24.308;2023-08-17T00:33:47;7.23;;;4.07;;
27839;SDS011;15207;42.182;24.308;2023-08-17T00:36:12;8.10;;;4.20;;
27839;SDS011;15207;42.182;24.308;2023-08-17T00:38:38;9.40;;;4.60;;
27839;SDS011;15207;42.182;24.308;2023-08-17T00:41:03;7.40;;;4.20;;
27839;SDS011;15207;42.182;24.308;2023-08-17T00:43:28;6.50;;;4.07;;
27839;SDS011;15207;42.182;24.308;2023-08-17T00:45:54;7.10;;;3.90;;
27839;SDS011;15207;42.182;24.308;2023-08-17T00:48:20;8.30;;;4.40;;
27839;SDS011;15207;42.182;24.308;2023-08-17T00:53:13;8.00;;;4.20;;
27839;SDS011;15207;42.182;24.308;2023-08-17T00:55:41;7.40;;;4.10;;
27839;SDS011;15207;42.182;24.308;2023-08-17T00:58:07;6.00;;;3.80;;
27839;SDS011;15207;42.182;24.308;2023-08-17T01:00:33;9.60;;;4.00;;
27839;SDS011;15207;42.182;24.308;2023-08-17T01:05:24;8.80;;;3.90;;
27839;SDS011;15207;42.182;24.308;2023-08-17T01:07:50;7.30;;;3.80;;
27839;SDS011;15207;42.182;24.308;2023-08-17T01:15:15;11.50;;;3.50;;
27839;SDS011;15207;42.182;24.308;2023-08-17T01:20:50;8.13;;;3.80;;
27839;SDS011;15207;42.182;24.308;2023-08-17T01:23:18;7.95;;;4.00;;
27839;SDS011;15207;42.182;24.308;2023-08-17T01:25:43;8.30;;;4.00;;
27839;SDS011;15207;42.182;24.308;2023-08-17T01:28:09;8.20;;;3.90;;
27839;SDS011;15207;42.182;24.308;2023-08-17T01:30:45;7.50;;;3.70;;
27839;SDS011;15207;42.182;24.308;2023-08-17T01:33:31;15.15;;;4.65;;
27839;SDS011;15207;42.182;24.308;2023-08-17T01:38:51;9.60;;;4.70;;
27839;SDS011;15207;42.182;24.308;2023-08-17T01:41:20;7.35;;;4.15;;
27839;SDS011;15207;42.182;24.308;2023-08-17T01:43:48;10.00;;;3.90;;
27839;SDS011;15207;42.182;24.308;2023-08-17T01:46:14;10.10;;;4.05;;
27839;SDS011;15207;42.182;24.308;2023-08-17T01:48:41;11.45;;;4.60;;
27839;SDS011;15207;42.182;24.308;2023-08-17T01:51:08;9.75;;;3.90;;
27839;SDS011;15207;42.182;24.308;2023-08-17T01:53:36;8.85;;;3.80;;
27839;SDS011;15207;42.182;24.308;2023-08-17T01:56:02;6.10;;;3.40;;
27839;SDS011;15207;42.182;24.308;2023-08-17T02:00:53;8.15;;;3.35;;
27839;SDS011;15207;42.182;24.308;2023-08-17T02:03:18;8.55;;;3.60;;
27839;SDS011;15207;42.182;24.308;2023-08-17T02:05:47;4.60;;;3.60;;
27839;SDS011;15207;42.182;24.308;2023-08-17T02:08:12;9.45;;;3.45;;
27839;SDS011;15207;42.182;24.308;2023-08-17T02:15:28;6.35;;;3.55;;
27839;SDS011;15207;42.182;24.308;2023-08-17T02:17:54;9.00;;;3.70;;
27839;SDS011;15207;42.182;24.308;2023-08-17T02:20:19;9.30;;;3.20;;
27839;SDS011;15207;42.182;24.308;2023-08-17T02:22:45;8.60;;;3.20;;
27839;SDS011;15207;42.182;24.308;2023-08-17T02:25:10;11.00;;;3.30;;
27839;SDS011;15207;42.182;24.308;2023-08-17T02:27:36;5.60;;;3.20;;
27839;SDS011;15207;42.182;24.308;2023-08-17T02:30:02;5.70;;;3.15;;
27839;SDS011;15207;42.182;24.308;2023-08-17T02:32:28;5.30;;;3.10;;
27839;SDS011;15207;42.182;24.308;2023-08-17T02:34:54;8.15;;;3.20;;
27839;SDS011;15207;42.182;24.308;2023-08-17T02:37:20;8.30;;;2.70;;
27839;SDS011;15207;42.182;24.308;2023-08-17T02:39:45;7.40;;;3.20;;
27839;SDS011;15207;42.182;24.308;2023-08-17T02:42:11;12.00;;;2.90;;
27839;SDS011;15207;42.182;24.308;2023-08-17T02:44:36;9.80;;;3.20;;
27839;SDS011;15207;42.182;24.308;2023-08-17T02:47:02;7.45;;;3.55;;
27839;SDS011;15207;42.182;24.308;2023-08-17T02:49:27;8.70;;;3.30;;
27839;SDS011;15207;42.182;24.308;2023-08-17T02:51:53;14.25;;;3.20;;
27839;SDS011;15207;42.182;24.308;2023-08-17T02:54:18;6.45;;;3.00;;
27839;SDS011;15207;42.182;24.308;2023-08-17T02:59:09;6.70;;;3.00;;
27839;SDS011;15207;42.182;24.308;2023-08-17T03:01:34;7.67;;;3.17;;
27839;SDS011;15207;42.182;24.308;2023-08-17T03:04:00;13.60;;;3.35;;
27839;SDS011;15207;42.182;24.308;2023-08-17T03:06:26;8.15;;;3.40;;
27839;SDS011;15207;42.182;24.308;2023-08-17T03:08:51;7.67;;;3.50;;
27839;SDS011;15207;42.182;24.308;2023-08-17T03:11:18;6.10;;;3.80;;
27839;SDS011;15207;42.182;24.308;2023-08-17T03:13:43;9.40;;;3.60;;
27839;SDS011;15207;42.182;24.308;2023-08-17T03:16:10;10.40;;;3.70;;
27839;SDS011;15207;42.182;24.308;2023-08-17T03:18:36;10.30;;;4.20;;
27839;SDS011;15207;42.182;24.308;2023-08-17T03:21:01;9.30;;;4.20;;
27839;SDS011;15207;42.182;24.308;2023-08-17T03:23:27;13.50;;;3.90;;
27839;SDS011;15207;42.182;24.308;2023-08-17T03:25:52;8.50;;;3.90;;
27839;SDS011;15207;42.182;24.308;2023-08-17T03:30:44;15.00;;;5.30;;
27839;SDS011;15207;42.182;24.308;2023-08-17T03:33:10;8.20;;;3.90;;
27839;SDS011;15207;42.182;24.308;2023-08-17T03:35:35;9.60;;;4.40;;
27839;SDS011;15207;42.182;24.308;2023-08-17T03:38:01;6.10;;;3.70;;
27839;SDS011;15207;42.182;24.308;2023-08-17T03:42:52;11.80;;;4.30;;
27839;SDS011;15207;42.182;24.308;2023-08-17T03:45:18;7.35;;;4.10;;
27839;SDS011;15207;42.182;24.308;2023-08-17T03:47:43;15.95;;;5.15;;
27839;SDS011;15207;42.182;24.308;2023-08-17T03:50:09;9.65;;;5.10;;
27839;SDS011;15207;42.182;24.308;2023-08-17T03:52:35;14.10;;;4.80;;
27839;SDS011;15207;42.182;24.308;2023-08-17T03:55:01;7.10;;;4.50;;
27839;SDS011;15207;42.182;24.308;2023-08-17T03:57:26;10.03;;;4.57;;
27839;SDS011;15207;42.182;24.308;2023-08-17T03:59:52;13.45;;;4.85;;
27839;SDS011;15207;42.182;24.308;2023-08-17T04:02:17;6.90;;;4.45;;
27839;SDS011;15207;42.182;24.308;2023-08-17T04:04:43;20.00;;;6.50;;
27839;SDS011;15207;42.182;24.308;2023-08-17T04:07:09;13.00;;;5.60;;
27839;SDS011;15207;42.182;24.308;2023-08-17T04:09:34;13.02;;;5.40;;
27839;SDS011;15207;42.182;24.308;2023-08-17T04:12:00;15.00;;;5.50;;
27839;SDS011;15207;42.182;24.308;2023-08-17T04:14:26;12.00;;;5.40;;
27839;SDS011;15207;42.182;24.308;2023-08-17T04:16:51;12.80;;;4.80;;
27839;SDS011;15207;42.182;24.308;2023-08-17T04:19:17;9.90;;;4.60;;
27839;SDS011;15207;42.182;24.308;2023-08-17T04:24:07;13.30;;;5.10;;
27839;SDS011;15207;42.182;24.308;2023-08-17T04:26:33;9.70;;;4.70;;
27839;SDS011;15207;42.182;24.308;2023-08-17T04:28:58;9.90;;;4.75;;
27839;SDS011;15207;42.182;24.308;2023-08-17T04:31:24;12.60;;;4.90;;
27839;SDS011;15207;42.182;24.308;2023-08-17T04:33:49;9.85;;;5.20;;
27839;SDS011;15207;42.182;24.308;2023-08-17T04:38:42;9.40;;;4.70;;
27839;SDS011;15207;42.182;24.308;2023-08-17T04:41:07;10.40;;;5.30;;
27839;SDS011;15207;42.182;24.308;2023-08-17T04:43:33;7.50;;;4.20;;
27839;SDS011;15207;42.182;24.308;2023-08-17T04:45:58;7.60;;;4.30;;
27839;SDS011;15207;42.182;24.308;2023-08-17T04:48:24;9.63;;;4.20;;
27839;SDS011;15207;42.182;24.308;2023-08-17T04:53:16;10.35;;;3.75;;
27839;SDS011;15207;42.182;24.308;2023-08-17T04:55:41;5.50;;;4.10;;
27839;SDS011;15207;42.182;24.308;2023-08-17T05:00:32;7.55;;;4.15;;
27839;SDS011;15207;42.182;24.308;2023-08-17T05:02:58;14.95;;;4.10;;
27839;SDS011;15207;42.182;24.308;2023-08-17T05:07:52;7.30;;;3.40;;
27839;SDS011;15207;42.182;24.308;2023-08-17T05:10:18;6.90;;;3.80;;
27839;SDS011;15207;42.182;24.308;2023-08-17T05:12:43;9.10;;;3.85;;
27839;SDS011;15207;42.182;24.308;2023-08-17T05:15:09;7.35;;;3.85;;
27839;SDS011;15207;42.182;24.308;2023-08-17T05:17:35;11.40;;;4.15;;
27839;SDS011;15207;42.182;24.308;2023-08-17T05:20:02;12.40;;;3.50;;
27839;SDS011;15207;42.182;24.308;2023-08-17T05:22:29;5.00;;;2.80;;
27839;SDS011;15207;42.182;24.308;2023-08-17T05:24:54;10.75;;;3.50;;
27839;SDS011;15207;42.182;24.308;2023-08-17T05:27:20;5.50;;;3.40;;
27839;SDS011;15207;42.182;24.308;2023-08-17T05:29:46;9.40;;;3.30;;
27839;SDS011;15207;42.182;24.308;2023-08-17T05:32:11;7.80;;;3.40;;
27839;SDS011;15207;42.182;24.308;2023-08-17T05:34:36;10.45;;;3.45;;
27839;SDS011;15207;42.182;24.308;2023-08-17T05:37:02;12.90;;;3.10;;
27839;SDS011;15207;42.182;24.308;2023-08-17T05:39:28;7.80;;;3.10;;
27839;SDS011;15207;42.182;24.308;2023-08-17T05:44:19;6.00;;;3.30;;
27839;SDS011;15207;42.182;24.308;2023-08-17T05:46:44;12.40;;;3.40;;
27839;SDS011;15207;42.182;24.308;2023-08-17T05:51:35;8.10;;;3.00;;
27839;SDS011;15207;42.182;24.308;2023-08-17T05:54:00;9.70;;;3.80;;
27839;SDS011;15207;42.182;24.308;2023-08-17T05:56:26;8.70;;;3.40;;
27839;SDS011;15207;42.182;24.308;2023-08-17T05:58:53;9.70;;;3.60;;
27839;SDS011;15207;42.182;24.308;2023-08-17T06:01:18;6.00;;;3.50;;
27839;SDS011;15207;42.182;24.308;2023-08-17T06:06:10;5.80;;;4.00;;
27839;SDS011;15207;42.182;24.308;2023-08-17T06:11:01;9.20;;;2.90;;
27839;SDS011;15207;42.182;24.308;2023-08-17T06:13:27;6.85;;;2.90;;
27839;SDS011;15207;42.182;24.308;2023-08-17T06:15:52;6.00;;;3.10;;
27839;SDS011;15207;42.182;24.308;2023-08-17T06:18:18;5.40;;;2.80;;
27839;SDS011;15207;42.182;24.308;2023-08-17T06:23:12;6.20;;;3.30;;
27839;SDS011;15207;42.182;24.308;2023-08-17T06:25:38;6.05;;;2.95;;
27839;SDS011;15207;42.182;24.308;2023-08-17T06:28:05;4.95;;;2.85;;
27839;SDS011;15207;42.182;24.308;2023-08-17T06:32:56;4.60;;;3.10;;
27839;SDS011;15207;42.182;24.308;2023-08-17T06:37:47;4.80;;;2.90;;
27839;SDS011;15207;42.182;24.308;2023-08-17T06:40:13;4.90;;;2.70;;
27839;SDS011;15207;42.182;24.308;2023-08-17T06:42:38;7.10;;;3.20;;
27839;SDS011;15207;42.182;24.308;2023-08-17T06:47:30;6.10;;;2.70;;
27839;SDS011;15207;42.182;24.308;2023-08-17T06:49:55;4.80;;;2.50;;
27839;SDS011;15207;42.182;24.308;2023-08-17T06:52:22;7.25;;;2.90;;
27839;SDS011;15207;42.182;24.308;2023-08-17T06:54:48;4.15;;;2.70;;
27839;SDS011;15207;42.182;24.308;2023-08-17T06:57:14;7.35;;;3.00;;
27839;SDS011;15207;42.182;24.308;2023-08-17T07:02:05;5.65;;;2.75;;
27839;SDS011;15207;42.182;24.308;2023-08-17T07:06:56;4.85;;;2.45;;
27839;SDS011;15207;42.182;24.308;2023-08-17T07:09:21;5.00;;;2.50;;
27839;SDS011;15207;42.182;24.308;2023-08-17T07:14:12;12.90;;;2.75;;
27839;SDS011;15207;42.182;24.308;2023-08-17T07:16:38;5.90;;;2.30;;
27839;SDS011;15207;42.182;24.308;2023-08-17T07:19:03;4.80;;;2.35;;
27839;SDS011;15207;42.182;24.308;2023-08-17T07:21:29;3.50;;;2.20;;
27839;SDS011;15207;42.182;24.308;2023-08-17T07:23:54;4.10;;;2.35;;
27839;SDS011;15207;42.182;24.308;2023-08-17T07:28:46;9.20;;;2.90;;
27839;SDS011;15207;42.182;24.308;2023-08-17T07:31:12;6.20;;;2.50;;
27839;SDS011;15207;42.182;24.308;2023-08-17T07:33:38;4.20;;;2.30;;
27839;SDS011;15207;42.182;24.308;2023-08-17T07:40:55;6.80;;;2.50;;
27839;SDS011;15207;42.182;24.308;2023-08-17T07:43:20;4.40;;;2.00;;
27839;SDS011;15207;42.182;24.308;2023-08-17T07:45:52;3.50;;;2.20;;
27839;SDS011;15207;42.182;24.308;2023-08-17T07:48:18;3.75;;;2.40;;
27839;SDS011;15207;42.182;24.308;2023-08-17T07:50:47;6.10;;;2.40;;
27839;SDS011;15207;42.182;24.308;2023-08-17T07:53:14;3.90;;;2.50;;
27839;SDS011;15207;42.182;24.308;2023-08-17T07:55:39;5.80;;;2.50;;
27839;SDS011;15207;42.182;24.308;2023-08-17T07:58:05;5.90;;;2.10;;
27839;SDS011;15207;42.182;24.308;2023-08-17T08:00:31;4.50;;;2.20;;
27839;SDS011;15207;42.182;24.308;2023-08-17T08:02:57;4.40;;;2.20;;
27839;SDS011;15207;42.182;24.308;2023-08-17T08:05:23;6.20;;;2.15;;
27839;SDS011;15207;42.182;24.308;2023-08-17T08:07:48;3.40;;;1.75;;
27839;SDS011;15207;42.182;24.308;2023-08-17T08:10:14;3.30;;;2.00;;
27839;SDS011;15207;42.182;24.308;2023-08-17T08:12:40;7.35;;;2.15;;
27839;SDS011;15207;42.182;24.308;2023-08-17T08:15:06;3.05;;;1.90;;
27839;SDS011;15207;42.182;24.308;2023-08-17T08:17:32;5.65;;;2.40;;
27839;SDS011;15207;42.182;24.308;2023-08-17T08:19:57;5.40;;;2.00;;
27839;SDS011;15207;42.182;24.308;2023-08-17T08:22:23;2.30;;;2.00;;
27839;SDS011;15207;42.182;24.308;2023-08-17T08:24:48;7.30;;;4.10;;
27839;SDS011;15207;42.182;24.308;2023-08-17T08:27:14;4.30;;;2.35;;
27839;SDS011;15207;42.182;24.308;2023-08-17T08:29:39;4.30;;;2.25;;
27839;SDS011;15207;42.182;24.308;2023-08-17T08:32:05;4.20;;;2.20;;
27839;SDS011;15207;42.182;24.308;2023-08-17T08:34:30;7.30;;;2.50;;
27839;SDS011;15207;42.182;24.308;2023-08-17T08:39:21;5.20;;;2.65;;
27839;SDS011;15207;42.182;24.308;2023-08-17T08:41:50;4.40;;;2.50;;
27839;SDS011;15207;42.182;24.308;2023-08-17T08:44:16;4.10;;;2.10;;
27839;SDS011;15207;42.182;24.308;2023-08-17T08:46:42;3.90;;;2.20;;
27839;SDS011;15207;42.182;24.308;2023-08-17T08:49:10;4.05;;;2.20;;
27839;SDS011;15207;42.182;24.308;2023-08-17T08:51:37;13.40;;;2.40;;
27839;SDS011;15207;42.182;24.308;2023-08-17T08:54:06;4.70;;;2.40;;
27839;SDS011;15207;42.182;24.308;2023-08-17T08:56:37;5.00;;;2.70;;
27839;SDS011;15207;42.182;24.308;2023-08-17T08:59:07;2.40;;;1.75;;
27839;SDS011;15207;42.182;24.308;2023-08-17T09:01:34;4.90;;;2.20;;
27839;SDS011;15207;42.182;24.308;2023-08-17T09:04:00;9.35;;;2.70;;
27839;SDS011;15207;42.182;24.308;2023-08-17T09:06:26;6.70;;;2.05;;
27839;SDS011;15207;42.182;24.308;2023-08-17T09:08:54;5.30;;;2.90;;
27839;SDS011;15207;42.182;24.308;2023-08-17T09:11:21;5.95;;;2.85;;
27839;SDS011;15207;42.182;24.308;2023-08-17T09:13:47;7.80;;;2.75;;
27839;SDS011;15207;42.182;24.308;2023-08-17T09:21:03;3.00;;;1.80;;
27839;SDS011;15207;42.182;24.308;2023-08-17T09:23:28;2.20;;;1.90;;
27839;SDS011;15207;42.182;24.308;2023-08-17T09:28:23;4.15;;;2.30;;
27839;SDS011;15207;42.182;24.308;2023-08-17T09:30:53;3.50;;;1.60;;
27839;SDS011;15207;42.182;24.308;2023-08-17T09:35:49;8.90;;;2.40;;
27839;SDS011;15207;42.182;24.308;2023-08-17T09:40:42;3.00;;;1.60;;
27839;SDS011;15207;42.182;24.308;2023-08-17T09:43:08;2.90;;;1.65;;
27839;SDS011;15207;42.182;24.308;2023-08-17T09:45:35;2.85;;;1.80;;
27839;SDS011;15207;42.182;24.308;2023-08-17T09:50:27;8.60;;;2.20;;
27839;SDS011;15207;42.182;24.308;2023-08-17T09:52:53;5.35;;;1.85;;
27839;SDS011;15207;42.182;24.308;2023-08-17T09:55:20;4.90;;;1.80;;
27839;SDS011;15207;42.182;24.308;2023-08-17T10:02:48;5.20;;;2.00;;
27839;SDS011;15207;42.182;24.308;2023-08-17T10:05:17;3.60;;;1.90;;
27839;SDS011;15207;42.182;24.308;2023-08-17T10:07:53;3.80;;;1.80;;
27839;SDS011;15207;42.182;24.308;2023-08-17T10:15:20;4.00;;;1.70;;
27839;SDS011;15207;42.182;24.308;2023-08-17T10:18:01;5.00;;;1.70;;
27839;SDS011;15207;42.182;24.308;2023-08-17T10:20:34;4.10;;;2.40;;
27839;SDS011;15207;42.182;24.308;2023-08-17T10:25:34;5.80;;;1.80;;
27839;SDS011;15207;42.182;24.308;2023-08-17T10:28:01;2.90;;;1.70;;
27839;SDS011;15207;42.182;24.308;2023-08-17T10:30:28;3.20;;;1.70;;
27839;SDS011;15207;42.182;24.308;2023-08-17T10:32:54;3.75;;;2.00;;
27839;SDS011;15207;42.182;24.308;2023-08-17T10:35:21;3.40;;;1.85;;
27839;SDS011;15207;42.182;24.308;2023-08-17T10:37:47;10.80;;;3.10;;
27839;SDS011;15207;42.182;24.308;2023-08-17T10:50:34;2.80;;;1.87;;
27839;SDS011;15207;42.182;24.308;2023-08-17T10:53:08;5.40;;;2.15;;
27839;SDS011;15207;42.182;24.308;2023-08-17T10:55:44;4.85;;;1.95;;
27839;SDS011;15207;42.182;24.308;2023-08-17T10:58:10;3.40;;;2.00;;
27839;SDS011;15207;42.182;24.308;2023-08-17T11:00:39;9.90;;;1.80;;
27839;SDS011;15207;42.182;24.308;2023-08-17T11:03:15;9.75;;;1.75;;
27839;SDS011;15207;42.182;24.308;2023-08-17T11:11:07;3.60;;;2.05;;
27839;SDS011;15207;42.182;24.308;2023-08-17T11:13:39;4.55;;;2.15;;
27839;SDS011;15207;42.182;24.308;2023-08-17T11:16:09;3.40;;;1.80;;
27839;SDS011;15207;42.182;24.308;2023-08-17T11:18:36;4.60;;;1.90;;
27839;SDS011;15207;42.182;24.308;2023-08-17T11:21:02;3.40;;;1.80;;
27839;SDS011;15207;42.182;24.308;2023-08-17T11:23:30;4.30;;;2.10;;
27839;SDS011;15207;42.182;24.308;2023-08-17T11:25:56;8.25;;;2.15;;
27839;SDS011;15207;42.182;24.308;2023-08-17T11:28:22;3.85;;;1.80;;
27839;SDS011;15207;42.182;24.308;2023-08-17T11:33:26;4.20;;;1.80;;
27839;SDS011;15207;42.182;24.308;2023-08-17T11:40:44;9.40;;;2.00;;
27839;SDS011;15207;42.182;24.308;2023-08-17T11:45:35;3.40;;;2.00;;
27839;SDS011;15207;42.182;24.308;2023-08-17T11:48:01;4.20;;;1.90;;
27839;SDS011;15207;42.182;24.308;2023-08-17T11:52:52;3.60;;;1.70;;
27839;SDS011;15207;42.182;24.308;2023-08-17T11:55:17;4.15;;;1.80;;
27839;SDS011;15207;42.182;24.308;2023-08-17T11:57:44;3.95;;;2.05;;
27839;SDS011;15207;42.182;24.308;2023-08-17T12:02:41;5.20;;;1.90;;
27839;SDS011;15207;42.182;24.308;2023-08-17T12:05:08;4.10;;;1.80;;
27839;SDS011;15207;42.182;24.308;2023-08-17T12:07:34;8.25;;;2.20;;
27839;SDS011;15207;42.182;24.308;2023-08-17T12:10:02;7.20;;;3.35;;
27839;SDS011;15207;42.182;24.308;2023-08-17T12:12:28;4.30;;;1.60;;
27839;SDS011;15207;42.182;24.308;2023-08-17T12:14:54;3.55;;;2.00;;
27839;SDS011;15207;42.182;24.308;2023-08-17T12:17:21;3.75;;;1.75;;
27839;SDS011;15207;42.182;24.308;2023-08-17T12:22:19;2.95;;;1.60;;
27839;SDS011;15207;42.182;24.308;2023-08-17T12:24:49;3.35;;;1.80;;
27839;SDS011;15207;42.182;24.308;2023-08-17T12:29:49;2.90;;;1.90;;
27839;SDS011;15207;42.182;24.308;2023-08-17T12:32:16;3.90;;;2.05;;
27839;SDS011;15207;42.182;24.308;2023-08-17T12:34:44;5.25;;;1.80;;
27839;SDS011;15207;42.182;24.308;2023-08-17T12:39:35;3.15;;;1.80;;
27839;SDS011;15207;42.182;24.308;2023-08-17T12:42:02;5.90;;;1.80;;
27839;SDS011;15207;42.182;24.308;2023-08-17T12:44:28;2.50;;;1.90;;
27839;SDS011;15207;42.182;24.308;2023-08-17T12:46:53;2.80;;;1.80;;
27839;SDS011;15207;42.182;24.308;2023-08-17T12:49:18;3.50;;;1.70;;
27839;SDS011;15207;42.182;24.308;2023-08-17T12:51:44;2.85;;;1.75;;
27839;SDS011;15207;42.182;24.308;2023-08-17T12:54:09;3.50;;;1.70;;
27839;SDS011;15207;42.182;24.308;2023-08-17T12:56:35;2.80;;;1.90;;
27839;SDS011;15207;42.182;24.308;2023-08-17T12:59:00;2.75;;;1.90;;
27839;SDS011;15207;42.182;24.308;2023-08-17T13:01:26;6.20;;;1.80;;
27839;SDS011;15207;42.182;24.308;2023-08-17T13:03:52;5.60;;;2.00;;
27839;SDS011;15207;42.182;24.308;2023-08-17T13:06:17;6.90;;;2.20;;
27839;SDS011;15207;42.182;24.308;2023-08-17T13:08:42;3.90;;;1.80;;
27839;SDS011;15207;42.182;24.308;2023-08-17T13:11:08;3.80;;;1.90;;
27839;SDS011;15207;42.182;24.308;2023-08-17T13:13:33;4.40;;;1.90;;
27839;SDS011;15207;42.182;24.308;2023-08-17T13:15:59;3.20;;;2.20;;
27839;SDS011;15207;42.182;24.308;2023-08-17T13:18:24;3.30;;;2.10;;
27839;SDS011;15207;42.182;24.308;2023-08-17T13:20:50;4.80;;;1.80;;
27839;SDS011;15207;42.182;24.308;2023-08-17T13:23:15;3.10;;;1.90;;
27839;SDS011;15207;42.182;24.308;2023-08-17T13:25:41;3.80;;;2.10;;
27839;SDS011;15207;42.182;24.308;2023-08-17T13:28:06;6.55;;;2.30;;
27839;SDS011;15207;42.182;24.308;2023-08-17T13:32:59;5.50;;;1.95;;
27839;SDS011;15207;42.182;24.308;2023-08-17T13:35:24;3.55;;;2.10;;
27839;SDS011;15207;42.182;24.308;2023-08-17T13:40:18;3.90;;;1.70;;
27839;SDS011;15207;42.182;24.308;2023-08-17T13:42:44;2.95;;;1.80;;
27839;SDS011;15207;42.182;24.308;2023-08-17T13:45:11;2.40;;;1.80;;
27839;SDS011;15207;42.182;24.308;2023-08-17T13:47:37;2.20;;;1.80;;
27839;SDS011;15207;42.182;24.308;2023-08-17T13:54:54;2.90;;;1.60;;
27839;SDS011;15207;42.182;24.308;2023-08-17T13:59:44;6.93;;;2.17;;
27839;SDS011;15207;42.182;24.308;2023-08-17T14:02:10;2.25;;;1.70;;
27839;SDS011;15207;42.182;24.308;2023-08-17T14:04:35;7.80;;;2.20;;
27839;SDS011;15207;42.182;24.308;2023-08-17T14:07:01;5.15;;;2.10;;
27839;SDS011;15207;42.182;24.308;2023-08-17T14:09:27;3.30;;;1.70;;
27839;SDS011;15207;42.182;24.308;2023-08-17T14:11:52;5.10;;;2.30;;
27839;SDS011;15207;42.182;24.308;2023-08-17T14:14:17;5.00;;;1.70;;
27839;SDS011;15207;42.182;24.308;2023-08-17T14:16:43;4.60;;;1.75;;
27839;SDS011;15207;42.182;24.308;2023-08-17T14:19:08;2.25;;;1.70;;
27839;SDS011;15207;42.182;24.308;2023-08-17T14:21:34;7.20;;;2.20;;
27839;SDS011;15207;42.182;24.308;2023-08-17T14:24:00;3.00;;;1.50;;
27839;SDS011;15207;42.182;24.308;2023-08-17T14:26:25;4.90;;;2.00;;
27839;SDS011;15207;42.182;24.308;2023-08-17T14:28:51;4.10;;;2.00;;
27839;SDS011;15207;42.182;24.308;2023-08-17T14:31:16;5.20;;;1.60;;
27839;SDS011;15207;42.182;24.308;2023-08-17T14:33:43;5.80;;;1.70;;
27839;SDS011;15207;42.182;24.308;2023-08-17T14:36:12;2.10;;;1.70;;
27839;SDS011;15207;42.182;24.308;2023-08-17T14:38:38;3.50;;;1.80;;
27839;SDS011;15207;42.182;24.308;2023-08-17T14:41:04;7.15;;;2.15;;
27839;SDS011;15207;42.182;24.308;2023-08-17T14:43:31;2.65;;;1.90;;
27839;SDS011;15207;42.182;24.308;2023-08-17T14:45:57;4.00;;;1.90;;
27839;SDS011;15207;42.182;24.308;2023-08-17T14:48:23;5.40;;;1.80;;
27839;SDS011;15207;42.182;24.308;2023-08-17T14:50:48;7.50;;;1.90;;
27839;SDS011;15207;42.182;24.308;2023-08-17T14:53:14;4.30;;;1.50;;
27839;SDS011;15207;42.182;24.308;2023-08-17T14:55:39;2.70;;;1.80;;
27839;SDS011;15207;42.182;24.308;2023-08-17T14:58:04;2.70;;;1.80;;
27839;SDS011;15207;42.182;24.308;2023-08-17T15:00:30;3.80;;;1.60;;
27839;SDS011;15207;42.182;24.308;2023-08-17T15:02:56;3.50;;;2.10;;
27839;SDS011;15207;42.182;24.308;2023-08-17T15:05:25;10.25;;;2.25;;
27839;SDS011;15207;42.182;24.308;2023-08-17T15:10:16;4.75;;;1.90;;
27839;SDS011;15207;42.182;24.308;2023-08-17T15:12:41;3.75;;;2.10;;
27839;SDS011;15207;42.182;24.308;2023-08-17T15:15:07;3.35;;;2.20;;
27839;SDS011;15207;42.182;24.308;2023-08-17T15:17:33;3.50;;;2.40;;
27839;SDS011;15207;42.182;24.308;2023-08-17T15:19:59;3.45;;;1.90;;
27839;SDS011;15207;42.182;24.308;2023-08-17T15:22:25;3.50;;;1.95;;
27839;SDS011;15207;42.182;24.308;2023-08-17T15:24:51;3.95;;;1.95;;
27839;SDS011;15207;42.182;24.308;2023-08-17T15:32:07;3.50;;;1.90;;
27839;SDS011;15207;42.182;24.308;2023-08-17T15:36:58;6.60;;;1.95;;
27839;SDS011;15207;42.182;24.308;2023-08-17T15:39:24;4.15;;;2.00;;
27839;SDS011;15207;42.182;24.308;2023-08-17T15:41:50;5.50;;;2.10;;
27839;SDS011;15207;42.182;24.308;2023-08-17T15:44:17;7.70;;;2.10;;
27839;SDS011;15207;42.182;24.308;2023-08-17T15:46:42;6.20;;;2.00;;
27839;SDS011;15207;42.182;24.308;2023-08-17T15:49:08;5.65;;;2.10;;
27839;SDS011;15207;42.182;24.308;2023-08-17T15:51:33;3.50;;;2.40;;
27839;SDS011;15207;42.182;24.308;2023-08-17T15:53:59;4.10;;;1.90;;
27839;SDS011;15207;42.182;24.308;2023-08-17T15:56:24;5.00;;;2.30;;
27839;SDS011;15207;42.182;24.308;2023-08-17T15:58:50;2.75;;;2.05;;
27839;SDS011;15207;42.182;24.308;2023-08-17T16:01:15;4.40;;;1.80;;
27839;SDS011;15207;42.182;24.308;2023-08-17T16:03:41;3.90;;;1.95;;
27839;SDS011;15207;42.182;24.308;2023-08-17T16:06:07;3.33;;;1.83;;
27839;SDS011;15207;42.182;24.308;2023-08-17T16:08:32;3.30;;;2.00;;
27839;SDS011;15207;42.182;24.308;2023-08-17T16:10:58;6.00;;;2.00;;
27839;SDS011;15207;42.182;24.308;2023-08-17T16:13:23;6.00;;;2.10;;
27839;SDS011;15207;42.182;24.308;2023-08-17T16:15:49;4.15;;;1.90;;
27839;SDS011;15207;42.182;24.308;2023-08-17T16:18:14;8.20;;;2.00;;
27839;SDS011;15207;42.182;24.308;2023-08-17T16:20:40;4.90;;;2.30;;
27839;SDS011;15207;42.182;24.308;2023-08-17T16:23:05;3.60;;;2.10;;
27839;SDS011;15207;42.182;24.308;2023-08-17T16:25:30;3.40;;;2.30;;
27839;SDS011;15207;42.182;24.308;2023-08-17T16:30:23;4.40;;;1.90;;
27839;SDS011;15207;42.182;24.308;2023-08-17T16:32:49;7.30;;;2.10;;
27839;SDS011;15207;42.182;24.308;2023-08-17T16:40:05;3.80;;;2.10;;
27839;SDS011;15207;42.182;24.308;2023-08-17T16:42:32;7.00;;;2.70;;
27839;SDS011;15207;42.182;24.308;2023-08-17T16:44:57;3.60;;;2.60;;
27839;SDS011;15207;42.182;24.308;2023-08-17T16:47:23;4.10;;;2.50;;
27839;SDS011;15207;42.182;24.308;2023-08-17T16:52:16;7.00;;;2.40;;
27839;SDS011;15207;42.182;24.308;2023-08-17T16:54:42;9.80;;;3.20;;
27839;SDS011;15207;42.182;24.308;2023-08-17T16:57:07;7.95;;;2.40;;
27839;SDS011;15207;42.182;24.308;2023-08-17T16:59:33;5.30;;;3.00;;
27839;SDS011;15207;42.182;24.308;2023-08-17T17:01:59;8.95;;;2.60;;
27839;SDS011;15207;42.182;24.308;2023-08-17T17:04:24;6.75;;;2.60;;
27839;SDS011;15207;42.182;24.308;2023-08-17T17:09:15;7.60;;;3.50;;
27839;SDS011;15207;42.182;24.308;2023-08-17T17:11:41;8.80;;;3.30;;
27839;SDS011;15207;42.182;24.308;2023-08-17T17:14:07;6.25;;;3.25;;
27839;SDS011;15207;42.182;24.308;2023-08-17T17:16:32;6.20;;;2.90;;
27839;SDS011;15207;42.182;24.308;2023-08-17T17:18:58;10.30;;;3.20;;
27839;SDS011;15207;42.182;24.308;2023-08-17T17:21:23;9.00;;;3.60;;
27839;SDS011;15207;42.182;24.308;2023-08-17T17:23:49;6.80;;;3.10;;
27839;SDS011;15207;42.182;24.308;2023-08-17T17:26:14;7.80;;;3.00;;
27839;SDS011;15207;42.182;24.308;2023-08-17T17:28:40;8.60;;;3.30;;
27839;SDS011;15207;42.182;24.308;2023-08-17T17:31:05;8.50;;;3.40;;
27839;SDS011;15207;42.182;24.308;2023-08-17T17:33:31;7.00;;;3.30;;